Time;durP1;ratioP1;P1;durP2;ratioP2;P2;SDS_P1;SDS_P2;PMS_P1;PMS_P2;Temp;Humidity;BMP_temperature;BMP_pressure;BME280_temperature;BME280_humidity;BME280_pressure;Samples;Min_cycle;Max_cycle;Signal;HPM_P1;HPM_P2
2021/12/24 00:01:32;;;;;;;70.70;27.90;;;6.50;99.90;;;;;;5096067;28;20028;-65
2021/12/24 00:03:58;;;;;;;59.55;26.42;;;6.50;99.90;;;;;;5096558;28;20115;-64
2021/12/24 00:06:23;;;;;;;87.72;30.98;;;6.60;99.90;;;;;;5096090;28;20365;-65
2021/12/24 00:08:49;;;;;;;82.55;30.30;;;6.60;99.90;;;;;;5096384;28;20070;-64
2021/12/24 00:11:16;;;;;;;68.05;28.15;;;6.60;99.90;;;;;;5096037;28;20393;-64
2021/12/24 00:13:44;;;;;;;58.35;26.52;;;6.70;99.90;;;;;;5096243;28;20040;-64
2021/12/24 00:16:20;;;;;;;59.00;26.83;;;6.70;99.90;;;;;;5095926;28;20551;-64
2021/12/24 00:19:00;;;;;;;72.75;28.08;;;6.80;99.90;;;;;;5096177;28;20144;-64
2021/12/24 00:37:21;;;;;;;65.63;28.08;;;6.90;99.90;;;;;;5093660;28;20101;-64
2021/12/24 00:40:30;;;;;;;56.65;26.73;;;6.90;99.90;;;;;;5095859;28;20036;-64
2021/12/24 00:42:36;;;;;;;58.65;26.30;;;6.90;99.90;;;;;;5086875;28;20106;-64
2021/12/24 00:45:04;;;;;;;65.65;26.65;;;7.00;99.90;;;;;;5095040;28;20449;-64
2021/12/24 00:47:29;;;;;;;60.72;26.70;;;7.00;99.90;;;;;;5095234;28;20044;-64
2021/12/24 00:49:55;;;;;;;46.95;23.63;;;7.00;99.90;;;;;;5095693;28;20035;-64
2021/12/24 00:52:44;;;;;;;61.40;26.45;;;7.00;99.90;;;;;;5095110;28;20047;-64
2021/12/24 00:55:09;;;;;;;64.57;26.67;;;7.00;99.90;;;;;;5094887;28;20044;-64
2021/12/24 00:57:40;;;;;;;43.92;22.20;;;7.00;99.90;;;;;;5095498;28;20126;-64
2021/12/24 01:00:15;;;;;;;46.90;23.55;;;7.10;99.90;;;;;;5095052;28;20122;-64
2021/12/24 01:02:42;;;;;;;50.35;23.80;;;7.10;99.90;;;;;;5095392;28;20180;-64
2021/12/24 01:05:08;;;;;;;40.70;20.73;;;7.20;99.90;;;;;;5094929;28;20087;-64
2021/12/24 01:07:34;;;;;;;48.05;23.52;;;7.20;99.90;;;;;;5095402;28;20094;-64
2021/12/24 01:10:00;;;;;;;51.58;23.55;;;7.20;99.90;;;;;;5095308;28;20508;-65
2021/12/24 01:12:26;;;;;;;49.72;22.92;;;7.20;99.90;;;;;;5094846;28;20043;-65
2021/12/24 01:14:52;;;;;;;47.47;22.67;;;7.20;99.90;;;;;;5094731;28;20040;-64
2021/12/24 01:20:13;;;;;;;41.20;20.17;;;7.20;99.90;;;;;;5095026;28;20055;-64
2021/12/24 01:25:32;;;;;;;43.22;18.33;;;7.30;99.90;;;;;;5094673;28;20051;-63
2021/12/24 01:39:08;;;;;;;38.92;19.23;;;7.40;99.90;;;;;;5094561;28;20036;-63
2021/12/24 01:44:26;;;;;;;43.65;19.42;;;7.40;99.90;;;;;;5094410;28;20055;-64
2021/12/24 01:46:51;;;;;;;30.67;14.95;;;7.40;99.90;;;;;;5094027;28;20074;-64
2021/12/24 01:49:17;;;;;;;39.22;19.08;;;7.40;99.90;;;;;;5094253;28;20086;-64
2021/12/24 01:51:42;;;;;;;39.80;19.10;;;7.50;99.90;;;;;;5093923;28;20052;-64
2021/12/24 01:54:10;;;;;;;30.13;16.50;;;7.50;99.90;;;;;;5094091;28;20046;-64
2021/12/24 01:56:36;;;;;;;40.85;18.77;;;7.50;99.90;;;;;;5093710;28;20469;-64
2021/12/24 01:59:02;;;;;;;36.85;17.65;;;7.60;99.90;;;;;;5093823;28;20123;-64
2021/12/24 02:01:28;;;;;;;38.63;18.08;;;7.70;99.90;;;;;;5093702;28;20032;-64
2021/12/24 02:03:54;;;;;;;31.25;15.85;;;7.70;99.90;;;;;;5094162;28;20051;-63
2021/12/24 02:06:20;;;;;;;42.22;19.52;;;7.70;99.90;;;;;;5093662;28;20044;-64
2021/12/24 02:08:45;;;;;;;37.25;17.85;;;7.70;99.90;;;;;;5093868;28;20036;-64
2021/12/24 02:11:11;;;;;;;33.42;17.23;;;7.90;99.90;;;;;;5093149;28;20039;-65
2021/12/24 02:13:39;;;;;;;45.58;20.33;;;7.90;99.90;;;;;;5093712;28;20051;-64
2021/12/24 02:16:15;;;;;;;38.35;18.00;;;7.90;99.90;;;;;;5092973;28;20477;-64
2021/12/24 02:29:39;;;;;;;40.05;17.45;;;8.00;99.90;;;;;;5093697;28;20055;-64
2021/12/24 02:32:06;;;;;;;26.70;15.65;;;8.10;99.90;;;;;;5092432;28;20421;-64
2021/12/24 02:34:31;;;;;;;37.13;17.38;;;8.20;99.90;;;;;;5093491;28;20224;-64
2021/12/24 02:36:57;;;;;;;34.53;16.70;;;8.20;99.90;;;;;;5093127;28;20453;-64
2021/12/24 02:39:23;;;;;;;33.05;16.48;;;8.20;99.90;;;;;;5093440;28;20465;-65
2021/12/24 02:41:48;;;;;;;43.80;19.40;;;8.20;99.90;;;;;;5092970;28;20346;-64
2021/12/24 02:44:14;;;;;;;27.73;15.25;;;8.20;99.90;;;;;;5093317;28;20050;-64
2021/12/24 02:47:08;;;;;;;37.40;18.60;;;8.30;99.90;;;;;;5092447;28;20036;-64
2021/12/24 02:55:09;;;;;;;43.92;17.30;;;8.20;99.90;;;;;;5093022;28;20036;-64
2021/12/24 02:57:37;;;;;;;34.05;14.85;;;8.20;99.90;;;;;;5093306;28;20043;-64
2021/12/24 03:00:15;;;;;;;32.70;14.32;;;8.20;99.90;;;;;;5093210;28;20040;-63
2021/12/24 03:02:44;;;;;;;33.95;15.13;;;8.30;99.90;;;;;;5093307;28;20039;-64
2021/12/24 03:05:12;;;;;;;32.08;13.23;;;8.40;99.90;;;;;;5093146;28;20044;-64
2021/12/24 03:07:38;;;;;;;27.63;12.63;;;8.40;99.90;;;;;;5093112;28;20054;-64
2021/12/24 03:10:11;;;;;;;26.83;12.57;;;8.40;99.90;;;;;;5092907;28;20044;-65
2021/12/24 03:12:37;;;;;;;25.45;11.00;;;8.40;99.90;;;;;;5093086;28;20036;-64
2021/12/24 03:15:04;;;;;;;25.63;10.80;;;8.40;99.90;;;;;;5092822;28;20506;-64
2021/12/24 03:17:31;;;;;;;23.50;11.15;;;8.40;99.90;;;;;;5073012;28;20074;-64
2021/12/24 03:20:03;;;;;;;21.42;10.30;;;8.40;99.90;;;;;;5072981;28;20040;-64
2021/12/24 03:25:13;;;;;;;21.60;10.02;;;8.40;99.90;;;;;;5078951;28;20297;-64
2021/12/24 03:27:40;;;;;;;23.50;12.02;;;8.40;99.90;;;;;;5097265;28;20040;-64
2021/12/24 03:30:06;;;;;;;22.95;11.70;;;8.40;99.90;;;;;;5096998;28;20036;-64
2021/12/24 03:32:32;;;;;;;25.00;12.75;;;8.40;99.90;;;;;;5096577;28;20123;-64
2021/12/24 03:34:58;;;;;;;25.50;12.75;;;8.50;99.90;;;;;;5097035;28;20082;-64
2021/12/24 03:37:23;;;;;;;28.90;15.18;;;8.50;99.90;;;;;;5096436;28;20028;-64
2021/12/24 03:39:49;;;;;;;26.45;14.73;;;8.40;99.90;;;;;;5096717;28;20454;-65
2021/12/24 03:42:15;;;;;;;34.05;16.10;;;8.40;99.90;;;;;;5096245;28;20036;-64
2021/12/24 03:44:45;;;;;;;36.15;17.20;;;8.40;99.90;;;;;;5096748;28;20227;-64
2021/12/24 03:47:15;;;;;;;35.88;17.10;;;8.40;99.90;;;;;;5096337;28;20036;-64
2021/12/24 03:50:07;;;;;;;36.80;18.50;;;8.40;99.90;;;;;;5085490;28;20055;-65
2021/12/24 03:54:59;;;;;;;43.65;21.33;;;8.40;99.90;;;;;;5075715;28;20408;-64
2021/12/24 03:57:30;;;;;;;44.60;21.77;;;8.40;99.90;;;;;;5076207;28;20135;-65
2021/12/24 03:59:59;;;;;;;45.75;20.10;;;8.40;99.90;;;;;;5075907;28;20094;-64
2021/12/24 04:02:25;;;;;;;42.85;19.13;;;8.40;99.90;;;;;;5075057;28;20166;-65
2021/12/24 04:04:51;;;;;;;54.05;21.58;;;8.50;99.90;;;;;;5075242;28;20127;-64
2021/12/24 04:07:17;;;;;;;40.63;20.48;;;8.50;99.90;;;;;;5080166;28;20048;-65
2021/12/24 04:09:51;;;;;;;36.80;18.45;;;8.50;99.90;;;;;;5096224;28;20036;-65
2021/12/24 04:12:17;;;;;;;44.08;19.70;;;8.50;99.90;;;;;;5095538;28;20452;-64
2021/12/24 04:14:43;;;;;;;44.20;20.17;;;8.50;99.90;;;;;;5095866;28;20039;-64
2021/12/24 04:17:08;;;;;;;39.72;20.17;;;8.50;99.90;;;;;;5095421;28;20036;-65
2021/12/24 04:25:04;;;;;;;45.47;20.38;;;8.40;99.90;;;;;;5075557;28;20060;-65
2021/12/24 04:27:31;;;;;;;35.42;18.42;;;8.40;99.90;;;;;;5076771;28;20049;-64
2021/12/24 04:30:06;;;;;;;47.22;20.70;;;8.50;99.90;;;;;;5075374;28;20114;-65
2021/12/24 04:32:52;;;;;;;39.38;20.30;;;8.50;99.90;;;;;;5074809;28;20048;-65
2021/12/24 04:51:27;;;;;;;43.38;18.10;;;8.60;99.90;;;;;;5093982;28;20044;-65
2021/12/24 05:02:38;;;;;;;36.58;18.10;;;8.60;99.90;;;;;;5093608;28;20098;-65
2021/12/24 05:05:20;;;;;;;41.45;19.08;;;8.50;99.90;;;;;;5095208;28;20105;-65
2021/12/24 05:10:11;;;;;;;38.97;18.77;;;8.50;99.90;;;;;;5094633;28;20044;-65
2021/12/24 05:12:37;;;;;;;35.25;17.98;;;8.60;99.90;;;;;;5095163;28;20425;-65
2021/12/24 05:15:09;;;;;;;40.08;17.08;;;8.60;99.90;;;;;;5095241;28;20040;-64
2021/12/24 05:17:53;;;;;;;37.25;17.50;;;8.50;99.90;;;;;;5086514;28;20060;-65
2021/12/24 05:23:03;;;;;;;37.42;17.10;;;8.50;99.90;;;;;;5093957;28;20048;-65
2021/12/24 05:25:29;;;;;;;37.88;17.15;;;8.50;99.90;;;;;;5093320;28;20051;-65
2021/12/24 05:27:57;;;;;;;40.45;17.60;;;8.50;99.90;;;;;;5074155;28;20083;-65
2021/12/24 05:30:23;;;;;;;39.53;16.58;;;8.50;99.90;;;;;;5073432;28;20064;-65
2021/12/24 05:32:49;;;;;;;41.33;17.60;;;8.50;99.90;;;;;;5073798;28;20397;-65
2021/12/24 05:35:15;;;;;;;30.50;14.93;;;8.50;99.90;;;;;;5057757;28;20409;-65
2021/12/24 05:37:41;;;;;;;39.95;17.00;;;8.50;99.90;;;;;;5094635;28;20036;-65
2021/12/24 05:40:07;;;;;;;32.63;14.50;;;8.50;99.90;;;;;;5093988;28;20106;-65
2021/12/24 05:42:33;;;;;;;39.42;15.00;;;8.50;99.90;;;;;;5094218;28;20484;-65
2021/12/24 05:45:05;;;;;;;36.72;15.60;;;8.50;99.90;;;;;;5093956;28;20036;-65
2021/12/24 05:47:32;;;;;;;36.20;14.90;;;8.50;99.90;;;;;;5094345;28;20043;-65
2021/12/24 05:49:59;;;;;;;32.22;13.75;;;8.50;99.90;;;;;;5094174;28;20054;-65
2021/12/24 05:52:25;;;;;;;30.15;12.80;;;8.50;99.90;;;;;;5094497;28;20093;-65
2021/12/24 05:54:51;;;;;;;36.92;14.52;;;8.50;99.90;;;;;;5094482;28;20040;-65
2021/12/24 05:57:17;;;;;;;29.65;12.45;;;8.60;99.90;;;;;;5092835;28;20338;-65
2021/12/24 05:59:42;;;;;;;29.73;12.57;;;8.60;99.90;;;;;;5094325;28;20028;-65
2021/12/24 06:02:08;;;;;;;29.17;13.52;;;8.60;99.90;;;;;;5093874;28;20439;-65
2021/12/24 06:04:34;;;;;;;36.45;12.73;;;8.60;99.90;;;;;;5094367;28;20063;-65
2021/12/24 06:06:59;;;;;;;27.98;13.38;;;8.60;99.90;;;;;;5094236;28;20036;-65
2021/12/24 06:09:25;;;;;;;33.53;12.48;;;8.60;99.90;;;;;;5094310;28;20331;-65
2021/12/24 06:11:51;;;;;;;33.05;14.07;;;8.60;99.90;;;;;;5092151;28;20051;-65
2021/12/24 06:14:17;;;;;;;35.08;12.32;;;8.60;99.90;;;;;;5094036;28;20139;-64
2021/12/24 06:17:01;;;;;;;31.40;12.40;;;8.60;99.90;;;;;;5093645;28;20115;-65
2021/12/24 06:19:27;;;;;;;30.42;12.15;;;8.60;99.90;;;;;;5094112;28;20036;-65
2021/12/24 06:21:58;;;;;;;28.75;12.63;;;8.60;99.90;;;;;;5093296;28;20500;-65
2021/12/24 06:24:24;;;;;;;34.25;12.32;;;8.60;99.90;;;;;;5093851;28;20044;-65
2021/12/24 06:26:51;;;;;;;26.73;11.43;;;8.60;99.90;;;;;;5092290;28;20036;-65
2021/12/24 06:29:17;;;;;;;31.50;11.13;;;8.50;99.90;;;;;;5093912;28;20040;-65
2021/12/24 06:31:43;;;;;;;34.40;11.20;;;8.50;99.90;;;;;;5092966;28;20076;-65
2021/12/24 06:34:09;;;;;;;35.85;10.27;;;8.50;99.90;;;;;;5092912;28;20032;-65
2021/12/24 06:36:39;;;;;;;25.02;9.43;;;8.50;99.90;;;;;;5093026;28;20032;-65
2021/12/24 06:39:06;;;;;;;30.10;9.20;;;8.50;99.90;;;;;;5093554;28;20040;-65
2021/12/24 06:41:32;;;;;;;30.13;9.50;;;8.50;99.90;;;;;;5093043;28;20118;-65
2021/12/24 06:43:57;;;;;;;34.47;10.25;;;8.40;99.90;;;;;;5093380;28;20524;-65
2021/12/24 06:46:23;;;;;;;30.70;9.63;;;8.50;99.90;;;;;;5093012;28;20071;-65
2021/12/24 06:48:53;;;;;;;32.17;10.00;;;8.50;99.90;;;;;;5093565;28;20055;-65
2021/12/24 06:51:20;;;;;;;26.08;9.75;;;8.50;99.90;;;;;;5092009;28;20074;-65
2021/12/24 06:53:45;;;;;;;34.78;11.35;;;8.40;99.90;;;;;;5093273;28;20047;-65
2021/12/24 06:56:11;;;;;;;37.08;10.98;;;8.40;99.90;;;;;;5092974;28;20040;-67
2021/12/24 06:58:37;;;;;;;28.63;9.75;;;8.50;99.90;;;;;;5093379;28;20295;-65
2021/12/24 07:01:03;;;;;;;31.30;10.70;;;8.40;99.90;;;;;;5084042;28;20047;-64
2021/12/24 07:03:29;;;;;;;29.98;10.30;;;8.40;99.90;;;;;;5072932;28;20040;-65
2021/12/24 07:05:55;;;;;;;35.42;9.90;;;8.40;99.90;;;;;;5074296;28;20040;-64
2021/12/24 07:08:21;;;;;;;32.58;10.85;;;8.50;99.90;;;;;;5074696;28;20028;-65
2021/12/24 07:10:46;;;;;;;28.27;10.68;;;8.40;99.90;;;;;;5072047;28;20048;-64
2021/12/24 07:13:12;;;;;;;28.65;11.02;;;8.40;99.90;;;;;;5072501;28;20122;-65
2021/12/24 07:15:38;;;;;;;37.72;10.82;;;8.40;99.90;;;;;;5073977;28;20124;-65
2021/12/24 07:18:03;;;;;;;30.30;11.00;;;8.30;99.90;;;;;;5072167;28;20111;-65
2021/12/24 07:20:29;;;;;;;28.58;9.45;;;8.30;99.90;;;;;;5088395;28;20028;-65
2021/12/24 07:22:55;;;;;;;28.52;10.15;;;8.40;99.90;;;;;;5076183;28;20063;-65
2021/12/24 07:25:20;;;;;;;30.42;9.90;;;8.40;99.90;;;;;;5073485;28;20405;-64
2021/12/24 07:27:46;;;;;;;28.63;10.32;;;8.40;99.90;;;;;;5092943;28;20503;-65
2021/12/24 07:30:13;;;;;;;31.33;11.35;;;8.40;99.90;;;;;;5091053;28;20071;-64
2021/12/24 07:32:40;;;;;;;34.75;11.45;;;8.30;99.90;;;;;;5071871;28;20040;-65
2021/12/24 07:35:07;;;;;;;32.63;12.05;;;8.30;99.90;;;;;;5072553;28;20071;-65
2021/12/24 07:37:33;;;;;;;32.78;10.95;;;8.30;99.90;;;;;;5075503;28;20448;-65
2021/12/24 07:40:01;;;;;;;27.58;10.43;;;8.30;99.90;;;;;;5072038;28;20068;-64
2021/12/24 07:42:27;;;;;;;35.15;11.10;;;8.30;99.90;;;;;;5091363;28;20052;-65
2021/12/24 07:44:53;;;;;;;30.95;10.43;;;8.30;99.90;;;;;;5092424;28;20052;-65
2021/12/24 07:47:27;;;;;;;37.45;10.57;;;8.30;99.90;;;;;;5075371;28;20089;-65
2021/12/24 07:50:02;;;;;;;35.97;10.07;;;8.30;99.90;;;;;;5072150;28;20173;-65
2021/12/24 07:52:29;;;;;;;32.78;9.57;;;8.30;99.90;;;;;;5072797;28;20036;-64
2021/12/24 07:54:55;;;;;;;29.60;11.75;;;8.30;99.90;;;;;;5072674;28;20075;-64
2021/12/24 07:57:22;;;;;;;32.85;12.13;;;8.20;99.90;;;;;;5090144;28;20197;-63
2021/12/24 07:59:48;;;;;;;32.78;10.20;;;8.30;99.90;;;;;;5091452;28;20048;-64
2021/12/24 08:02:16;;;;;;;37.45;10.00;;;8.20;99.90;;;;;;5073842;28;20089;-64
2021/12/24 08:04:44;;;;;;;35.92;11.50;;;8.30;99.90;;;;;;5072021;28;20044;-65
2021/12/24 08:07:09;;;;;;;35.75;12.05;;;8.30;99.90;;;;;;5074643;28;20174;-64
2021/12/24 08:09:37;;;;;;;35.90;11.05;;;8.30;99.90;;;;;;5074358;28;20123;-65
2021/12/24 08:12:07;;;;;;;29.55;10.20;;;8.40;99.90;;;;;;5074985;28;20032;-65
2021/12/24 08:14:33;;;;;;;43.35;12.18;;;8.40;99.90;;;;;;5075133;28;20090;-65
2021/12/24 08:16:59;;;;;;;41.42;11.50;;;8.40;99.90;;;;;;5075806;28;20040;-65
2021/12/24 08:19:24;;;;;;;38.60;10.20;;;8.40;99.90;;;;;;5076286;28;20033;-65
2021/12/24 08:21:50;;;;;;;33.55;9.13;;;8.40;99.90;;;;;;5075516;28;20043;-66
2021/12/24 08:24:16;;;;;;;29.80;8.70;;;8.40;99.90;;;;;;5075410;28;20077;-63
2021/12/24 08:26:42;;;;;;;31.27;8.95;;;8.40;99.90;;;;;;5087818;28;20044;-62
2021/12/24 08:29:07;;;;;;;25.23;6.88;;;8.40;99.90;;;;;;5075518;28;20183;-63
2021/12/24 08:31:34;;;;;;;25.95;7.50;;;8.50;99.90;;;;;;5075099;28;20058;-64
2021/12/24 08:34:01;;;;;;;23.15;6.35;;;8.40;99.90;;;;;;5075621;28;20040;-63
2021/12/24 08:36:27;;;;;;;21.25;7.00;;;8.40;99.90;;;;;;5077456;28;20032;-64
2021/12/24 08:38:55;;;;;;;27.63;7.85;;;8.50;99.90;;;;;;5075092;28;20094;-63
2021/12/24 08:41:21;;;;;;;33.83;8.10;;;8.40;99.90;;;;;;5076138;28;20041;-63
2021/12/24 08:43:46;;;;;;;26.88;8.60;;;8.40;99.90;;;;;;5075499;28;20048;-64
2021/12/24 08:46:12;;;;;;;30.67;7.43;;;8.40;99.90;;;;;;5082637;28;20105;-64
2021/12/24 08:48:37;;;;;;;34.03;7.20;;;8.30;99.90;;;;;;5095690;28;20055;-64
2021/12/24 08:51:03;;;;;;;28.10;7.22;;;8.40;99.90;;;;;;5095221;28;20040;-63
2021/12/24 08:53:29;;;;;;;29.95;7.43;;;8.40;99.90;;;;;;5095480;28;20433;-63
2021/12/24 08:55:54;;;;;;;32.08;7.72;;;8.40;99.90;;;;;;5093429;28;20032;-63
2021/12/24 08:58:20;;;;;;;41.03;8.25;;;8.50;99.90;;;;;;5075160;28;20195;-64
2021/12/24 09:00:46;;;;;;;28.55;6.82;;;8.40;99.90;;;;;;5074383;28;20052;-65
2021/12/24 09:03:11;;;;;;;28.60;7.45;;;8.40;99.90;;;;;;5075213;28;20055;-64
2021/12/24 09:05:37;;;;;;;28.52;7.00;;;8.40;99.90;;;;;;5077204;28;20040;-63
2021/12/24 09:08:03;;;;;;;26.50;5.82;;;8.40;99.90;;;;;;5094964;28;20032;-64
2021/12/24 09:10:29;;;;;;;32.08;8.57;;;8.50;99.90;;;;;;5093978;28;20078;-64
2021/12/24 09:12:55;;;;;;;24.77;6.22;;;8.50;99.90;;;;;;5095101;28;20071;-64
2021/12/24 09:15:21;;;;;;;25.27;5.70;;;8.50;99.90;;;;;;5094741;28;20051;-63
2021/12/24 09:17:47;;;;;;;28.25;6.35;;;8.40;99.90;;;;;;5094295;28;20036;-63
2021/12/24 09:20:24;;;;;;;26.05;6.03;;;8.50;99.90;;;;;;5093116;28;20071;-64
2021/12/24 09:22:50;;;;;;;25.55;6.22;;;8.50;99.90;;;;;;5094402;28;20418;-64
2021/12/24 09:25:16;;;;;;;26.42;6.30;;;8.50;99.90;;;;;;5095052;28;20059;-63
2021/12/24 09:27:42;;;;;;;29.58;7.38;;;8.50;99.90;;;;;;5094678;28;20164;-64
2021/12/24 09:30:09;;;;;;;24.40;5.90;;;8.40;99.90;;;;;;5094282;28;20341;-64
2021/12/24 09:32:35;;;;;;;30.63;7.40;;;8.50;99.90;;;;;;5094228;28;20063;-63
2021/12/24 09:35:00;;;;;;;32.40;8.00;;;8.50;99.90;;;;;;5094870;28;20628;-63
2021/12/24 09:37:26;;;;;;;23.60;7.10;;;8.50;99.90;;;;;;5091779;28;20051;-64
2021/12/24 09:39:52;;;;;;;30.02;7.40;;;8.50;99.90;;;;;;5094300;28;20044;-63
2021/12/24 09:42:18;;;;;;;27.33;7.20;;;8.50;99.90;;;;;;5094560;28;20036;-63
2021/12/24 09:44:43;;;;;;;32.08;9.27;;;8.50;99.90;;;;;;5094511;28;20113;-63
2021/12/24 09:47:09;;;;;;;29.30;8.68;;;8.50;99.90;;;;;;5093981;28;20113;-63
2021/12/24 09:49:35;;;;;;;31.35;9.93;;;8.50;99.90;;;;;;5094255;28;20054;-63
2021/12/24 09:52:02;;;;;;;39.00;9.30;;;8.50;99.90;;;;;;5094417;28;20044;-63
2021/12/24 09:54:28;;;;;;;27.67;8.48;;;8.50;99.90;;;;;;5094279;28;20031;-63
2021/12/24 09:56:55;;;;;;;22.30;7.30;;;8.60;99.90;;;;;;5093114;28;20040;-63
2021/12/24 09:59:22;;;;;;;33.15;8.20;;;8.70;99.90;;;;;;5094255;28;20044;-63
2021/12/24 10:01:55;;;;;;;24.17;8.13;;;8.60;99.90;;;;;;5093683;28;20036;-63
2021/12/24 10:04:27;;;;;;;30.55;8.32;;;8.50;99.90;;;;;;5094190;28;20079;-63
2021/12/24 10:06:54;;;;;;;22.25;7.20;;;8.60;99.90;;;;;;5093795;28;20040;-63
2021/12/24 10:09:27;;;;;;;26.58;7.25;;;8.60;99.90;;;;;;5093625;28;20089;-63
2021/12/24 10:11:57;;;;;;;24.38;6.50;;;8.60;99.90;;;;;;5093602;28;20389;-62
2021/12/24 10:14:33;;;;;;;21.20;6.05;;;8.60;99.90;;;;;;5093500;28;20338;-63
2021/12/24 10:16:59;;;;;;;26.75;7.43;;;8.60;99.90;;;;;;5093808;28;20043;-63
2021/12/24 10:19:25;;;;;;;37.33;6.82;;;8.60;99.90;;;;;;5093687;28;20165;-63
2021/12/24 10:21:59;;;;;;;20.40;5.90;;;8.50;99.90;;;;;;5093048;28;20119;-63
2021/12/24 10:24:26;;;;;;;19.95;6.68;;;8.60;99.90;;;;;;5093693;28;20044;-62
2021/12/24 10:26:57;;;;;;;22.40;6.03;;;8.70;99.90;;;;;;5093426;28;20048;-63
2021/12/24 10:29:29;;;;;;;21.38;6.50;;;8.60;99.90;;;;;;5093833;28;20040;-63
2021/12/24 10:31:57;;;;;;;20.80;6.43;;;8.70;99.90;;;;;;5092877;28;20458;-63
2021/12/24 10:34:34;;;;;;;22.30;6.80;;;8.70;99.90;;;;;;5093602;28;20361;-63
2021/12/24 10:37:04;;;;;;;18.17;6.95;;;8.70;99.90;;;;;;5090657;28;20032;-63
2021/12/24 10:39:36;;;;;;;25.70;7.22;;;8.80;99.90;;;;;;5093126;28;20101;-63
2021/12/24 10:42:05;;;;;;;22.08;7.20;;;8.80;99.90;;;;;;5093371;28;20122;-63
2021/12/24 10:44:34;;;;;;;26.05;7.18;;;8.80;99.90;;;;;;5093356;28;20469;-63
2021/12/24 10:47:15;;;;;;;25.55;7.18;;;8.80;99.90;;;;;;5084729;28;20051;-63
2021/12/24 10:54:59;;;;;;;29.63;8.77;;;8.90;99.90;;;;;;5073199;28;20058;-63
2021/12/24 10:57:30;;;;;;;23.02;8.18;;;8.80;99.90;;;;;;5089938;28;20040;-63
2021/12/24 10:59:59;;;;;;;27.02;9.13;;;8.80;99.90;;;;;;5091017;28;20377;-63
2021/12/24 11:02:34;;;;;;;33.38;8.40;;;8.80;99.90;;;;;;5093233;28;20044;-64
2021/12/24 11:05:01;;;;;;;25.58;7.80;;;8.80;99.90;;;;;;5093598;28;20048;-63
2021/12/24 11:07:38;;;;;;;23.60;7.75;;;8.70;99.90;;;;;;5085802;28;20040;-64
2021/12/24 11:10:33;;;;;;;24.38;7.47;;;8.70;99.90;;;;;;5075988;28;20448;-64
2021/12/24 11:13:08;;;;;;;21.50;7.18;;;8.70;99.90;;;;;;5084325;28;20036;-64
2021/12/24 11:15:42;;;;;;;24.95;7.30;;;8.70;99.90;;;;;;5090361;28;20314;-64
2021/12/24 11:18:13;;;;;;;20.83;6.57;;;8.70;99.90;;;;;;5092930;28;20386;-64
2021/12/24 11:20:39;;;;;;;29.60;7.32;;;8.70;99.90;;;;;;5092371;28;20037;-64
2021/12/24 11:23:14;;;;;;;24.75;6.40;;;8.70;99.90;;;;;;5073506;28;20056;-64
2021/12/24 11:25:43;;;;;;;25.38;6.63;;;8.70;99.90;;;;;;5074247;28;20068;-65
2021/12/24 11:28:11;;;;;;;26.15;8.70;;;8.70;99.90;;;;;;5051111;28;20481;-65
2021/12/24 11:30:49;;;;;;;29.48;9.57;;;8.90;99.90;;;;;;5071773;28;20059;-64
2021/12/24 11:33:17;;;;;;;31.17;11.35;;;9.00;99.90;;;;;;5072200;28;20044;-63
2021/12/24 11:35:44;;;;;;;28.10;10.45;;;9.10;99.90;;;;;;5074124;28;20078;-64
2021/12/24 11:38:16;;;;;;;153.57;88.97;;;9.10;99.90;;;;;;5092695;28;20040;-64
2021/12/24 11:40:44;;;;;;;55.67;30.02;;;9.30;99.90;;;;;;5087728;28;20040;-64
2021/12/24 11:43:10;;;;;;;42.65;24.23;;;9.40;99.90;;;;;;5069455;28;20041;-64
2021/12/24 11:45:35;;;;;;;57.67;30.95;;;9.60;99.90;;;;;;5075489;28;20048;-64
2021/12/24 11:48:03;;;;;;;41.80;20.83;;;9.60;99.90;;;;;;5089276;28;20037;-64
2021/12/24 11:50:32;;;;;;;28.98;11.68;;;9.80;99.90;;;;;;5074662;28;20042;-64
2021/12/24 11:53:00;;;;;;;21.02;9.60;;;9.70;99.90;;;;;;5074487;28;20058;-64
2021/12/24 11:55:31;;;;;;;25.88;11.52;;;9.60;99.90;;;;;;5072901;28;20241;-64
2021/12/24 11:58:04;;;;;;;25.10;14.05;;;9.60;99.90;;;;;;5093901;28;20492;-63
2021/12/24 12:00:37;;;;;;;27.58;13.00;;;9.90;99.90;;;;;;5077322;28;20036;-64
2021/12/24 12:03:03;;;;;;;19.85;10.05;;;10.00;99.90;;;;;;5088231;28;20123;-64
2021/12/24 12:05:32;;;;;;;19.23;10.20;;;9.90;99.90;;;;;;5075139;28;20124;-64
2021/12/24 12:08:23;;;;;;;10.57;5.78;;;9.70;99.90;;;;;;5094579;28;20070;-64
2021/12/24 12:10:51;;;;;;;14.50;7.65;;;9.50;99.90;;;;;;5094719;28;20134;-64
2021/12/24 12:13:45;;;;;;;10.65;5.45;;;9.40;99.90;;;;;;5080500;28;20044;-65
2021/12/24 12:16:17;;;;;;;11.20;6.07;;;9.30;99.90;;;;;;5074696;28;20146;-64
2021/12/24 12:19:04;;;;;;;11.10;6.03;;;9.50;99.90;;;;;;5079720;28;20444;-65
2021/12/24 12:22:11;;;;;;;9.00;4.32;;;9.50;99.90;;;;;;5075376;28;20072;-65
2021/12/24 12:27:36;;;;;;;8.23;4.20;;;9.80;99.90;;;;;;5080479;28;20098;-66
2021/12/24 12:30:31;;;;;;;8.07;3.40;;;9.70;99.90;;;;;;5091733;28;20076;-65
2021/12/24 12:33:13;;;;;;;;;;;9.70;99.90;;;;;;5063329;28;20106;-65
2021/12/24 12:35:39;;;;;;;6.95;3.72;;;9.60;99.90;;;;;;5076042;28;19924;-66
2021/12/24 12:38:30;;;;;;;5.40;2.92;;;9.60;99.90;;;;;;5075826;28;20090;-65
2021/12/24 12:41:22;;;;;;;5.50;2.88;;;9.70;99.90;;;;;;5074878;28;20047;-64
2021/12/24 12:43:50;;;;;;;4.90;2.70;;;9.70;99.90;;;;;;5075206;28;20041;-65
2021/12/24 12:46:43;;;;;;;3.65;1.80;;;9.70;99.90;;;;;;5079991;28;20055;-65
2021/12/24 12:49:14;;;;;;;4.05;2.25;;;9.70;99.90;;;;;;5092322;28;20150;-66
2021/12/24 12:51:58;;;;;;;3.42;1.75;;;9.80;99.90;;;;;;5094000;28;20039;-66
2021/12/24 12:54:31;;;;;;;3.10;1.75;;;9.80;99.90;;;;;;5094127;28;20068;-66
2021/12/24 12:57:21;;;;;;;3.88;1.90;;;9.80;99.90;;;;;;5095124;28;20068;-66
2021/12/24 13:00:19;;;;;;;2.83;1.75;;;9.90;99.90;;;;;;5075911;28;20033;-66
2021/12/24 13:02:57;;;;;;;3.88;1.63;;;10.00;99.90;;;;;;5094334;28;20044;-66
2021/12/24 13:05:28;;;;;;;1.92;1.40;;;10.00;99.90;;;;;;5078203;28;20048;-66
2021/12/24 13:07:59;;;;;;;1.85;1.50;;;9.90;99.90;;;;;;5077710;28;20051;-66
2021/12/24 13:10:26;;;;;;;2.78;1.85;;;9.80;99.90;;;;;;5091766;28;20036;-65
2021/12/24 13:13:03;;;;;;;2.88;1.52;;;9.70;99.90;;;;;;5094128;28;20052;-66
2021/12/24 13:15:29;;;;;;;1.92;1.50;;;9.70;99.90;;;;;;5095287;28;20043;-65
2021/12/24 13:17:59;;;;;;;2.40;1.40;;;9.60;99.90;;;;;;5094615;28;20374;-65
2021/12/24 13:20:45;;;;;;;2.63;1.70;;;9.70;99.90;;;;;;5094746;28;20032;-66
2021/12/24 13:23:23;;;;;;;1.80;1.40;;;9.70;99.90;;;;;;5079010;28;20078;-66
2021/12/24 13:25:49;;;;;;;1.88;1.17;;;9.80;99.90;;;;;;5094667;28;20106;-65
2021/12/24 13:28:15;;;;;;;2.10;1.33;;;9.80;99.90;;;;;;5094822;28;20456;-66
2021/12/24 13:30:41;;;;;;;2.95;1.85;;;9.90;99.90;;;;;;5093380;28;20051;-66
2021/12/24 13:33:08;;;;;;;2.75;1.48;;;9.80;99.90;;;;;;5090034;28;20071;-66
2021/12/24 13:35:38;;;;;;;3.25;1.80;;;9.90;99.90;;;;;;5074510;28;20036;-65
2021/12/24 13:38:10;;;;;;;3.25;1.55;;;9.90;99.90;;;;;;5094587;28;20031;-66
2021/12/24 13:40:36;;;;;;;4.40;1.55;;;9.90;99.90;;;;;;5094072;28;20365;-66
2021/12/24 13:43:06;;;;;;;4.15;1.50;;;10.10;99.90;;;;;;5094597;28;20050;-66
2021/12/24 13:45:34;;;;;;;1.30;1.20;;;10.00;99.90;;;;;;5093631;28;20048;-66
2021/12/24 13:48:11;;;;;;;3.35;1.23;;;10.00;99.90;;;;;;5093268;28;20036;-65
2021/12/24 13:56:06;;;;;;;1.98;1.10;;;10.10;99.90;;;;;;5094192;28;20064;-65
2021/12/24 13:58:32;;;;;;;1.90;1.20;;;10.00;99.90;;;;;;5073893;28;20112;-65
2021/12/24 14:01:01;;;;;;;2.88;1.25;;;10.00;99.90;;;;;;5072959;28;20047;-65
2021/12/24 14:03:33;;;;;;;1.45;1.10;;;10.00;99.90;;;;;;5074430;28;20106;-65
2021/12/24 14:06:04;;;;;;;1.20;1.10;;;9.90;99.90;;;;;;5075952;28;20659;-65
2021/12/24 14:08:34;;;;;;;1.52;1.20;;;9.80;99.90;;;;;;5094293;28;20039;-66
2021/12/24 14:11:04;;;;;;;2.95;1.40;;;9.80;99.90;;;;;;5093032;28;20054;-66
2021/12/24 14:13:35;;;;;;;4.22;2.28;;;9.70;99.90;;;;;;5093816;28;20445;-66
2021/12/24 14:16:10;;;;;;;3.15;2.10;;;9.90;99.90;;;;;;5093416;28;20058;-66
2021/12/24 14:24:15;;;;;;;3.00;2.30;;;10.00;99.90;;;;;;5093352;28;20134;-67
2021/12/24 14:26:57;;;;;;;1.75;1.60;;;9.90;99.90;;;;;;5093618;28;20040;-68
2021/12/24 14:29:32;;;;;;;4.95;2.53;;;9.90;99.90;;;;;;5092561;28;20050;-68
2021/12/24 14:32:07;;;;;;;3.72;2.33;;;9.90;99.90;;;;;;5090958;28;20111;-68
2021/12/24 14:34:54;;;;;;;2.63;1.65;;;10.00;99.90;;;;;;5092816;28;20036;-67
2021/12/24 14:37:33;;;;;;;4.43;2.10;;;9.90;99.90;;;;;;5088703;28;20050;-68
2021/12/24 14:40:00;;;;;;;2.85;1.90;;;9.90;99.90;;;;;;5093205;28;20044;-68
2021/12/24 14:42:37;;;;;;;6.15;3.25;;;9.90;99.90;;;;;;5092601;28;20079;-67
2021/12/24 14:45:18;;;;;;;2.15;1.85;;;9.80;99.90;;;;;;5092249;28;20043;-67
2021/12/24 14:47:59;;;;;;;2.33;1.73;;;9.70;99.90;;;;;;5089739;28;20040;-67